createdAt,value
2023-04-02T00:01:38.698Z,7.90
2023-04-02T00:04:23.477Z,7.91
2023-04-02T00:06:54.386Z,7.94
2023-04-02T00:09:32.901Z,7.96
2023-04-02T00:12:15.448Z,7.97
2023-04-02T00:14:47.934Z,8.00
2023-04-02T00:17:16.423Z,7.99
2023-04-02T00:19:46.850Z,7.93
2023-04-02T00:22:17.548Z,7.90
2023-04-02T00:24:45.499Z,7.91
2023-04-02T00:27:15.696Z,7.91
2023-04-02T00:29:48.011Z,7.88
2023-04-02T00:32:19.839Z,7.86
2023-04-02T00:34:47.876Z,7.88
2023-04-02T00:37:23.833Z,7.90
2023-04-02T00:39:54.230Z,7.94
2023-04-02T00:42:25.394Z,8.00
2023-04-02T00:44:54.890Z,7.91
2023-04-02T00:47:24.520Z,7.94
2023-04-02T00:49:56.979Z,7.95
2023-04-02T00:52:27.003Z,7.94
2023-04-02T00:55:00.433Z,7.91
2023-04-02T00:57:29.989Z,7.95
2023-04-02T00:59:59.820Z,7.99
2023-04-02T01:02:29.598Z,8.05
2023-04-02T01:04:58.677Z,8.02
2023-04-02T01:07:34.413Z,8.04
2023-04-02T01:10:11.928Z,8.04
2023-04-02T01:12:49.075Z,8.08
2023-04-02T01:15:19.529Z,8.09
2023-04-02T01:17:59.573Z,8.10
2023-04-02T01:20:42.293Z,8.07
2023-04-02T01:23:13.597Z,8.06
2023-04-02T01:25:44.912Z,8.06
2023-04-02T01:28:19.851Z,8.06
2023-04-02T01:30:52.507Z,8.09
2023-04-02T01:33:22.023Z,8.07
2023-04-02T01:35:53.421Z,8.07
2023-04-02T01:38:23.736Z,8.04
2023-04-02T01:40:55.915Z,8.02
2023-04-02T01:43:27.598Z,8.17
2023-04-02T01:45:58.316Z,8.10
2023-04-02T01:48:30.287Z,8.15
2023-04-02T01:50:59.645Z,8.06
2023-04-02T01:53:29.829Z,8.10
2023-04-02T01:55:59.585Z,8.09
2023-04-02T01:58:29.096Z,8.13
2023-04-02T02:01:00.214Z,8.08
2023-04-02T02:03:28.424Z,8.04
2023-04-02T02:05:56.817Z,8.09
2023-04-02T02:08:32.872Z,8.08
2023-04-02T02:11:00.961Z,8.01
2023-04-02T02:13:28.988Z,8.02
2023-04-02T02:16:00.263Z,7.99
2023-04-02T02:18:29.361Z,7.92
2023-04-02T02:20:58.711Z,7.83
2023-04-02T02:23:29.555Z,7.87
2023-04-02T02:25:57.744Z,7.87
2023-04-02T02:28:27.747Z,7.82
2023-04-02T02:30:59.196Z,7.82
2023-04-02T02:33:30.149Z,7.81
2023-04-02T02:36:01.218Z,7.81
2023-04-02T02:38:45.748Z,7.82
2023-04-02T02:41:17.867Z,7.76
2023-04-02T02:43:47.981Z,7.84
2023-04-02T02:46:18.314Z,7.83
2023-04-02T02:48:48.323Z,7.83
2023-04-02T02:51:22.186Z,7.88
2023-04-02T02:53:52.246Z,7.82
2023-04-02T02:56:22.910Z,7.86
2023-04-02T02:58:52.418Z,7.91
2023-04-02T03:01:20.729Z,7.95
2023-04-02T03:03:53.907Z,7.96
2023-04-02T03:06:22.358Z,7.94
2023-04-02T03:08:52.494Z,7.90
2023-04-02T03:11:25.384Z,8.02
2023-04-02T03:13:56.283Z,8.03
2023-04-02T03:16:27.651Z,8.10
2023-04-02T03:18:59.864Z,7.99
2023-04-02T03:21:29.626Z,8.14
2023-04-02T03:23:59.755Z,8.17
2023-04-02T03:27:16.844Z,8.19
2023-04-02T03:29:49.691Z,8.25
2023-04-02T03:32:18.885Z,8.19
2023-04-02T03:34:50.754Z,8.18
2023-04-02T03:37:21.382Z,8.26
2023-04-02T03:39:53.256Z,8.35
2023-04-02T03:42:23.041Z,8.39
2023-04-02T03:44:53.590Z,8.41
2023-04-02T03:47:29.056Z,8.39
2023-04-02T03:50:01.167Z,8.31
2023-04-02T03:52:30.398Z,8.30
2023-04-02T03:55:00.197Z,8.34
2023-04-02T03:57:32.764Z,8.35
2023-04-02T04:00:05.078Z,8.38
2023-04-02T04:02:41.299Z,8.44
2023-04-02T04:05:21.071Z,8.48
2023-04-02T04:07:51.411Z,8.43
2023-04-02T04:10:21.354Z,8.52
2023-04-02T04:12:50.176Z,8.55
2023-04-02T04:15:22.022Z,8.54
2023-04-02T04:17:55.372Z,8.65
2023-04-02T04:20:28.291Z,8.66
2023-04-02T04:22:58.204Z,8.65
2023-04-02T04:25:29.661Z,8.73
2023-04-02T04:28:05.717Z,8.72
2023-04-02T04:30:36.524Z,8.78
2023-04-02T04:33:06.707Z,8.79
2023-04-02T04:35:39.222Z,8.80
2023-04-02T04:38:09.121Z,8.80
2023-04-02T04:40:38.810Z,8.72
2023-04-02T04:43:08.839Z,8.75
2023-04-02T04:45:41.221Z,8.76
2023-04-02T04:48:11.969Z,8.77
2023-04-02T04:50:47.698Z,8.77
2023-04-02T04:53:17.718Z,8.79
2023-04-02T04:55:46.359Z,8.80
2023-04-02T04:58:18.130Z,8.75
2023-04-02T05:00:52.459Z,8.84
2023-04-02T05:03:25.686Z,8.81
2023-04-02T05:05:55.417Z,8.85
2023-04-02T05:08:27.377Z,8.84
2023-04-02T05:10:58.674Z,8.80
2023-04-02T05:13:31.197Z,8.83
2023-04-02T05:16:04.901Z,8.85
2023-04-02T05:18:34.374Z,8.84
2023-04-02T05:21:07.283Z,8.84
2023-04-02T05:23:36.478Z,8.86
2023-04-02T05:26:08.066Z,8.94
2023-04-02T05:28:38.740Z,8.92
2023-04-02T05:31:08.659Z,8.97
2023-04-02T05:33:37.955Z,8.91
2023-04-02T05:36:09.421Z,8.83
2023-04-02T05:38:38.739Z,8.83
2023-04-02T05:41:08.174Z,8.83
2023-04-02T05:43:38.365Z,8.84
2023-04-02T05:46:15.234Z,8.99
2023-04-02T05:48:44.733Z,9.12
2023-04-02T05:51:18.788Z,9.13
2023-04-02T05:53:49.612Z,9.26
2023-04-02T05:56:20.305Z,9.41
2023-04-02T05:58:49.869Z,9.38
2023-04-02T06:01:33.761Z,9.51
2023-04-02T06:04:06.053Z,9.56
2023-04-02T06:06:47.528Z,9.72
2023-04-02T06:09:19.380Z,9.83
2023-04-02T06:11:50.472Z,9.93
2023-04-02T06:14:19.056Z,10.05
2023-04-02T06:16:47.669Z,10.18
2023-04-02T06:19:19.822Z,10.06
2023-04-02T06:21:51.048Z,10.31
2023-04-02T06:24:22.303Z,10.52
2023-04-02T06:26:52.849Z,10.70
2023-04-02T06:29:26.566Z,10.69
2023-04-02T06:31:56.681Z,10.84
2023-04-02T06:34:25.627Z,10.93
2023-04-02T06:36:58.777Z,11.11
2023-04-02T06:39:27.648Z,11.40
2023-04-02T06:42:01.995Z,11.53
2023-04-02T06:44:33.072Z,11.62
2023-04-02T06:47:03.586Z,11.75
2023-04-02T06:49:35.701Z,11.80
2023-04-02T06:52:07.778Z,11.63
2023-04-02T06:54:35.831Z,11.64
2023-04-02T06:57:05.244Z,11.71
2023-04-02T06:59:33.299Z,11.78
2023-04-02T07:02:03.843Z,11.67
2023-04-02T07:04:31.789Z,11.64
2023-04-02T07:06:59.871Z,11.66
2023-04-02T07:09:29.476Z,11.58
2023-04-02T07:11:57.508Z,11.35
2023-04-02T07:14:25.603Z,11.23
2023-04-02T07:16:53.694Z,11.07
2023-04-02T07:19:22.479Z,11.04
2023-04-02T07:21:50.569Z,10.96
2023-04-02T07:24:18.737Z,10.88
2023-04-02T07:26:48.919Z,10.84
2023-04-02T07:29:17.569Z,10.82
2023-04-02T07:31:48.128Z,10.74
2023-04-02T07:34:16.272Z,10.62
2023-04-02T07:36:44.256Z,10.65
2023-04-02T07:39:12.536Z,10.72
2023-04-02T07:41:54.919Z,10.92
2023-04-02T07:44:22.918Z,11.07
2023-04-02T07:46:50.941Z,11.32
2023-04-02T07:49:18.969Z,11.49
2023-04-02T07:51:47.559Z,11.34
2023-04-02T07:54:15.628Z,11.25
2023-04-02T07:56:43.741Z,11.19
2023-04-02T07:59:13.300Z,11.01
2023-04-02T08:01:43.212Z,10.94
2023-04-02T08:04:19.322Z,10.85
2023-04-02T08:06:48.209Z,10.95
2023-04-02T08:09:16.239Z,10.79
2023-04-02T08:11:44.724Z,10.80
2023-04-02T08:14:14.076Z,10.73
2023-04-02T08:16:46.196Z,10.61
2023-04-02T08:19:17.226Z,10.71
2023-04-02T08:21:45.116Z,10.68
2023-04-02T08:24:13.234Z,10.68
2023-04-02T08:26:41.968Z,10.68
2023-04-02T08:29:10.919Z,10.68
2023-04-02T08:31:40.420Z,10.68
2023-04-02T08:34:08.462Z,10.51
2023-04-02T08:36:37.921Z,10.17
2023-04-02T08:39:06.799Z,10.19
2023-04-02T08:41:38.013Z,10.18
2023-04-02T08:44:12.396Z,10.25
2023-04-02T08:46:45.697Z,10.16
2023-04-02T08:49:15.745Z,10.14
2023-04-02T08:51:43.991Z,10.31
2023-04-02T08:54:17.634Z,10.48
2023-04-02T08:56:52.368Z,10.72
2023-04-02T08:59:25.972Z,10.88
2023-04-02T09:01:59.234Z,11.02
2023-04-02T09:04:27.865Z,11.01
2023-04-02T09:06:57.284Z,10.82
2023-04-02T09:09:28.751Z,10.74
2023-04-02T09:12:01.498Z,10.70
2023-04-02T09:14:34.214Z,10.61
2023-04-02T09:17:05.343Z,10.92
2023-04-02T09:19:35.243Z,11.06
2023-04-02T09:22:10.302Z,11.06
2023-04-02T09:24:38.936Z,11.27
2023-04-02T09:27:18.669Z,11.38
2023-04-02T09:29:47.506Z,11.41
2023-04-02T09:36:18.960Z,11.41
2023-04-02T09:39:06.521Z,11.37
2023-04-02T09:41:36.697Z,11.32
2023-04-02T09:44:15.752Z,11.42
2023-04-02T09:46:51.428Z,11.66
2023-04-02T09:49:20.156Z,11.67
2023-04-02T09:52:07.011Z,11.66
2023-04-02T09:54:41.529Z,11.67
2023-04-02T09:57:18.710Z,11.71
2023-04-02T09:59:46.763Z,11.90
2023-04-02T10:02:25.648Z,11.98
2023-04-02T10:04:53.922Z,12.06
2023-04-02T10:07:35.702Z,12.04
2023-04-02T10:10:16.438Z,11.96
2023-04-02T10:12:45.960Z,12.19
2023-04-02T10:15:17.955Z,12.31
2023-04-02T10:17:47.689Z,12.51
2023-04-02T10:20:19.060Z,12.66
2023-04-02T10:22:48.717Z,12.75
2023-04-02T10:25:17.277Z,12.93
2023-04-02T10:27:48.416Z,13.23
2023-04-02T10:30:20.447Z,12.97
2023-04-02T10:32:52.748Z,13.19
2023-04-02T10:35:25.821Z,13.34
2023-04-02T10:38:11.352Z,13.62
2023-04-02T10:40:42.106Z,14.09
2023-04-02T10:43:31.584Z,14.35
2023-04-02T10:46:02.571Z,14.88
2023-04-02T10:48:34.929Z,15.39
2023-04-02T10:51:05.291Z,16.14
2023-04-02T10:53:39.636Z,16.43
2023-04-02T10:56:11.534Z,16.31
2023-04-02T10:58:44.321Z,16.43
2023-04-02T11:01:17.180Z,17.14
2023-04-02T11:03:46.309Z,17.67
2023-04-02T11:06:18.391Z,18.04
2023-04-02T11:08:48.568Z,18.25
2023-04-02T11:11:17.704Z,18.00
2023-04-02T11:13:52.536Z,18.14
2023-04-02T11:16:21.274Z,18.39
2023-04-02T11:19:07.907Z,17.84
2023-04-02T11:21:54.814Z,17.44
2023-04-02T11:24:41.538Z,17.04
2023-04-02T11:27:17.324Z,16.32
2023-04-02T11:29:46.639Z,16.25
2023-04-02T11:32:29.851Z,15.92
2023-04-02T11:35:26.221Z,16.29
2023-04-02T11:37:54.537Z,16.72
2023-04-02T11:40:54.891Z,16.87
2023-04-02T11:43:41.637Z,16.50
2023-04-02T11:46:32.394Z,16.36
2023-04-02T11:49:31.902Z,15.91
2023-04-02T11:52:10.912Z,15.77
2023-04-02T11:54:40.682Z,15.66
2023-04-02T11:57:16.505Z,15.57
2023-04-02T11:59:50.670Z,15.55
2023-04-02T12:02:25.790Z,15.48
2023-04-02T12:05:14.682Z,15.26
2023-04-02T12:07:52.386Z,15.30
2023-04-02T12:10:21.921Z,15.35
2023-04-02T12:12:50.783Z,15.43
2023-04-02T12:15:33.768Z,15.78
2023-04-02T12:18:11.901Z,16.55
2023-04-02T12:20:39.834Z,16.85
2023-04-02T12:23:07.762Z,17.20
2023-04-02T12:25:40.571Z,17.66
2023-04-02T12:28:17.914Z,17.71
2023-04-02T12:30:46.651Z,17.59
2023-04-02T12:33:28.414Z,17.52
2023-04-02T12:35:58.719Z,17.32
2023-04-02T12:38:28.090Z,17.35
2023-04-02T12:40:57.006Z,17.08
2023-04-02T12:43:26.073Z,17.00
2023-04-02T12:45:54.873Z,16.68
2023-04-02T12:48:25.166Z,16.31
2023-04-02T12:50:53.451Z,16.02
2023-04-02T12:53:23.149Z,15.67
2023-04-02T12:55:51.881Z,14.96
2023-04-02T12:58:25.463Z,14.82
2023-04-02T13:00:53.670Z,14.39
2023-04-02T13:03:22.774Z,14.04
2023-04-02T13:05:57.155Z,13.95
2023-04-02T13:08:27.374Z,13.86
2023-04-02T13:10:56.754Z,13.76
2023-04-02T13:13:28.411Z,13.54
2023-04-02T13:16:03.674Z,13.37
2023-04-02T13:18:33.267Z,13.17
2023-04-02T13:21:04.201Z,13.26
2023-04-02T13:23:37.514Z,13.29
2023-04-02T13:26:16.082Z,13.35
2023-04-02T13:28:44.259Z,13.42
2023-04-02T13:31:16.245Z,13.48
2023-04-02T13:33:44.240Z,13.64
2023-04-02T13:36:15.804Z,13.70
2023-04-02T13:38:43.804Z,13.74
2023-04-02T13:41:19.997Z,13.84
2023-04-02T13:43:47.932Z,13.92
2023-04-02T13:46:19.336Z,14.09
2023-04-02T13:48:47.274Z,14.33
2023-04-02T13:51:19.385Z,14.42
2023-04-02T13:53:48.783Z,14.43
2023-04-02T13:56:16.729Z,14.32
2023-04-02T13:58:44.775Z,14.32
2023-04-02T14:01:12.834Z,14.23
2023-04-02T14:03:40.953Z,14.06
2023-04-02T14:06:12.946Z,13.93
2023-04-02T14:08:53.061Z,13.81
2023-04-02T14:11:29.049Z,13.73
2023-04-02T14:14:03.819Z,13.74
2023-04-02T14:16:48.566Z,13.67
2023-04-02T14:19:26.027Z,13.76
2023-04-02T14:21:58.566Z,13.69
2023-04-02T14:24:31.470Z,13.64
2023-04-02T14:27:15.597Z,13.62
2023-04-02T14:29:49.192Z,13.50
2023-04-02T14:32:20.727Z,13.53
2023-04-02T14:34:52.980Z,13.54
2023-04-02T14:37:24.214Z,13.46
2023-04-02T14:40:00.671Z,13.43
2023-04-02T14:42:33.010Z,13.42
2023-04-02T14:45:06.560Z,13.39
2023-04-02T14:47:38.136Z,13.39
2023-04-02T14:50:12.717Z,13.46
2023-04-02T14:52:44.343Z,13.42
2023-04-02T14:55:17.404Z,13.38
2023-04-02T14:57:51.192Z,13.39
2023-04-02T15:00:27.599Z,13.39
2023-04-02T15:02:57.325Z,13.34
2023-04-02T15:05:29.604Z,13.32
2023-04-02T15:07:59.405Z,13.27
2023-04-02T15:10:30.255Z,13.20
2023-04-02T15:12:58.767Z,13.12
2023-04-02T15:15:39.918Z,13.02
2023-04-02T15:18:11.119Z,12.90
2023-04-02T15:20:41.182Z,12.85
2023-04-02T15:23:14.412Z,12.78
2023-04-02T15:25:45.716Z,12.69
2023-04-02T15:28:19.557Z,12.56
2023-04-02T15:30:50.416Z,12.41
2023-04-02T15:33:31.332Z,12.35
2023-04-02T15:36:17.832Z,12.29
2023-04-02T15:38:49.019Z,12.31
2023-04-02T15:41:23.802Z,12.21
2023-04-02T15:43:57.924Z,12.10
2023-04-02T15:46:29.802Z,12.14
2023-04-02T15:49:07.284Z,12.13
2023-04-02T15:51:38.085Z,12.09
2023-04-02T15:54:14.032Z,12.02
2023-04-02T15:56:50.041Z,12.04
2023-04-02T15:59:35.983Z,12.06
2023-04-02T16:02:14.571Z,12.08
2023-04-02T16:04:53.889Z,12.05
2023-04-02T16:07:28.141Z,12.02
2023-04-02T16:10:00.727Z,12.01
2023-04-02T16:12:30.510Z,11.94
2023-04-02T16:15:06.085Z,11.87
2023-04-02T16:17:38.198Z,11.84
2023-04-02T16:20:16.820Z,11.83
2023-04-02T16:22:59.503Z,11.67
2023-04-02T16:25:29.828Z,11.56
2023-04-02T16:28:03.846Z,11.50
2023-04-02T16:30:38.384Z,11.41
2023-04-02T16:33:16.178Z,11.34
2023-04-02T16:35:46.928Z,11.33
2023-04-02T16:38:20.963Z,11.27
2023-04-02T16:41:06.779Z,11.21
2023-04-02T16:43:41.888Z,11.20
2023-04-02T16:46:13.030Z,11.25
2023-04-02T16:48:46.166Z,11.28
2023-04-02T16:51:18.420Z,11.27
2023-04-02T16:54:01.629Z,11.31
2023-04-02T16:56:36.832Z,11.31
2023-04-02T16:59:13.146Z,11.34
2023-04-02T17:01:46.758Z,11.35
2023-04-02T17:04:32.193Z,11.37
2023-04-02T17:07:07.263Z,11.31
2023-04-02T17:09:40.057Z,11.34
2023-04-02T17:12:15.953Z,11.31
2023-04-02T17:14:50.965Z,11.35
2023-04-02T17:17:19.121Z,11.37
2023-04-02T17:19:48.033Z,11.41
2023-04-02T17:22:18.528Z,11.39
2023-04-02T17:24:49.147Z,11.41
2023-04-02T17:27:21.601Z,11.43
2023-04-02T17:29:53.424Z,11.42
2023-04-02T17:32:24.102Z,11.43
2023-04-02T17:34:52.090Z,11.40
2023-04-02T17:37:24.221Z,11.37
2023-04-02T17:39:56.990Z,11.37
2023-04-02T17:42:31.267Z,11.42
2023-04-02T17:45:05.876Z,11.48
2023-04-02T17:47:39.502Z,11.48
2023-04-02T17:50:34.514Z,11.49
2023-04-02T17:53:05.358Z,11.44
2023-04-02T17:55:40.719Z,11.43
2023-04-02T17:58:17.193Z,11.47
2023-04-02T18:00:54.001Z,11.48
2023-04-02T18:03:36.306Z,11.50
2023-04-02T18:06:07.261Z,11.49
2023-04-02T18:08:41.647Z,11.45
2023-04-02T18:11:11.588Z,11.36
2023-04-02T18:13:42.312Z,11.45
2023-04-02T18:16:34.301Z,11.45
2023-04-02T18:19:08.568Z,11.45
2023-04-02T18:21:40.627Z,11.44
2023-04-02T18:24:27.327Z,11.39
2023-04-02T18:27:01.830Z,11.39
2023-04-02T18:29:37.363Z,11.35
2023-04-02T18:32:13.430Z,11.36
2023-04-02T18:34:56.215Z,11.35
2023-04-02T18:37:29.995Z,11.18
2023-04-02T18:40:08.192Z,11.30
2023-04-02T18:42:45.980Z,11.14
2023-04-02T18:45:18.210Z,11.15
2023-04-02T18:47:50.365Z,11.20
2023-04-02T18:50:23.578Z,11.20
2023-04-02T18:52:53.221Z,11.21
2023-04-02T18:55:22.330Z,11.20
2023-04-02T18:57:52.699Z,11.20
2023-04-02T19:00:27.514Z,11.18
2023-04-02T19:02:58.678Z,11.14
2023-04-02T19:05:32.098Z,11.09
2023-04-02T19:08:04.191Z,11.03
2023-04-02T19:10:33.323Z,11.11
2023-04-02T19:13:01.764Z,11.11
2023-04-02T19:15:36.744Z,11.12
2023-04-02T19:18:09.828Z,11.15
2023-04-02T19:20:42.568Z,11.13
2023-04-02T19:23:20.014Z,11.13
2023-04-02T19:25:57.554Z,11.12
2023-04-02T19:28:30.506Z,11.14
2023-04-02T19:31:04.716Z,11.16
2023-04-02T19:33:42.531Z,11.11
2023-04-02T19:36:18.686Z,11.11
2023-04-02T19:38:55.855Z,11.13
2023-04-02T19:41:29.730Z,11.16
2023-04-02T19:43:57.805Z,11.19
2023-04-02T19:46:27.488Z,11.16
2023-04-02T19:48:59.986Z,11.12
2023-04-02T19:51:28.032Z,10.86
2023-04-02T19:53:57.463Z,11.05
2023-04-02T19:56:25.966Z,11.03
2023-04-02T19:58:54.521Z,11.03
2023-04-02T20:01:22.920Z,11.01
2023-04-02T20:03:51.036Z,10.95
2023-04-02T20:06:37.743Z,10.89
2023-04-02T20:09:09.036Z,10.80
2023-04-02T20:11:37.772Z,10.73
2023-04-02T20:14:06.195Z,10.77
2023-04-02T20:16:34.569Z,10.80
2023-04-02T20:19:02.725Z,10.80
2023-04-02T20:21:35.031Z,10.81
2023-04-02T20:24:03.241Z,10.80
2023-04-02T20:26:32.821Z,10.79
2023-04-02T20:29:05.663Z,10.77
2023-04-02T20:31:36.183Z,10.76
2023-04-02T20:34:06.786Z,10.75
2023-04-02T20:36:34.992Z,10.72
2023-04-02T20:39:03.625Z,10.65
2023-04-02T20:41:33.089Z,10.60
2023-04-02T20:44:01.190Z,10.51
2023-04-02T20:46:29.202Z,10.44
2023-04-02T20:48:57.215Z,10.38
2023-04-02T20:51:25.204Z,10.33
2023-04-02T20:53:53.915Z,10.29
2023-04-02T20:56:23.487Z,10.20
2023-04-02T20:58:52.818Z,10.15
2023-04-02T21:01:22.235Z,10.13
2023-04-02T21:03:50.801Z,10.10
